createdAt,value
2023-02-02T00:00:58.683Z,5.02
2023-02-02T00:06:01.773Z,4.92
2023-02-02T00:10:59.196Z,4.83
2023-02-02T00:16:00.319Z,4.96
2023-02-02T00:21:04.954Z,4.92
2023-02-02T00:26:03.042Z,4.75
2023-02-02T00:31:02.589Z,4.84
2023-02-02T00:36:05.080Z,4.69
2023-02-02T00:41:04.267Z,4.63
2023-02-02T00:46:06.568Z,4.57
2023-02-02T00:51:05.917Z,4.43
2023-02-02T00:56:09.110Z,4.39
2023-02-02T01:01:31.621Z,4.51
2023-02-02T01:06:30.273Z,4.20
2023-02-02T01:11:35.233Z,4.43
2023-02-02T01:16:33.083Z,4.45
2023-02-02T01:21:33.336Z,4.09
2023-02-02T01:26:36.999Z,4.06
2023-02-02T01:31:35.825Z,4.28
2023-02-02T01:36:36.164Z,4.07
2023-02-02T01:41:36.869Z,3.83
2023-02-02T01:46:38.848Z,3.74
2023-02-02T01:51:43.550Z,3.94
2023-02-02T01:56:46.392Z,3.93
2023-02-02T02:01:48.768Z,3.63
2023-02-02T02:06:48.612Z,3.78
2023-02-02T02:11:49.021Z,3.48
2023-02-02T02:17:18.860Z,3.61
2023-02-02T02:22:41.607Z,3.52
2023-02-02T02:28:22.430Z,3.25
2023-02-02T02:33:38.750Z,3.36
2023-02-02T02:38:45.125Z,3.27
2023-02-02T02:43:49.330Z,3.11
2023-02-02T02:48:48.718Z,3.03
2023-02-02T02:53:46.908Z,3.26
2023-02-02T02:58:58.378Z,3.09
2023-02-02T03:04:21.309Z,3.14
2023-02-02T03:09:23.527Z,3.41
2023-02-02T03:14:22.721Z,3.54
2023-02-02T03:19:21.226Z,3.28
2023-02-02T03:24:23.733Z,3.15
2023-02-02T03:29:22.322Z,3.20
2023-02-02T03:34:24.826Z,3.04
2023-02-02T03:39:24.589Z,3.13
2023-02-02T03:44:23.831Z,3.18
2023-02-02T03:49:25.156Z,3.03
2023-02-02T03:54:22.738Z,3.05
2023-02-02T03:59:21.124Z,3.09
2023-02-02T04:04:20.748Z,3.09
2023-02-02T04:09:22.507Z,3.31
2023-02-02T04:14:23.875Z,3.20
2023-02-02T04:19:24.276Z,3.15
2023-02-02T04:24:26.989Z,3.25
2023-02-02T04:29:26.461Z,3.27
2023-02-02T04:34:28.856Z,3.22
2023-02-02T04:39:28.546Z,3.48
2023-02-02T04:44:26.875Z,3.40
2023-02-02T04:49:26.929Z,3.48
2023-02-02T04:54:25.995Z,3.60
2023-02-02T04:59:28.277Z,3.55
2023-02-02T05:04:27.945Z,3.28
2023-02-02T05:09:28.454Z,3.22
2023-02-02T05:14:29.825Z,3.33
2023-02-02T05:19:27.230Z,3.34
2023-02-02T05:24:27.742Z,3.06
2023-02-02T05:29:29.803Z,2.90
2023-02-02T05:34:30.388Z,3.25
2023-02-02T05:39:30.377Z,3.02
2023-02-02T05:44:27.789Z,3.03
2023-02-02T05:49:27.961Z,3.30
2023-02-02T05:54:37.587Z,3.17
2023-02-02T05:59:36.110Z,3.54
2023-02-02T06:04:37.545Z,3.37
2023-02-02T06:09:36.707Z,3.20
2023-02-02T06:14:36.868Z,3.43
2023-02-02T06:19:34.281Z,3.24
2023-02-02T06:24:33.704Z,3.33
2023-02-02T06:29:32.839Z,3.30
2023-02-02T06:34:30.230Z,3.61
2023-02-02T06:39:27.945Z,3.69
2023-02-02T06:44:27.880Z,3.71
2023-02-02T06:49:26.754Z,3.80
2023-02-02T06:54:24.965Z,3.79
2023-02-02T06:59:24.056Z,3.73
2023-02-02T07:04:23.613Z,3.85
2023-02-02T07:09:24.842Z,3.96
2023-02-02T07:14:25.556Z,4.14
2023-02-02T07:19:26.269Z,4.46
2023-02-02T07:24:34.968Z,4.51
2023-02-02T07:29:32.476Z,5.08
2023-02-02T07:34:29.868Z,5.27
2023-02-02T07:39:27.289Z,5.23
2023-02-02T07:44:36.183Z,5.42
2023-02-02T07:49:33.700Z,5.24
2023-02-02T07:54:33.836Z,5.12
2023-02-02T07:59:32.606Z,5.13
2023-02-02T08:04:34.467Z,5.39
2023-02-02T08:09:34.805Z,5.58
2023-02-02T08:14:35.657Z,5.36
2023-02-02T08:19:36.949Z,5.67
2023-02-02T08:24:40.703Z,5.53
2023-02-02T08:29:39.926Z,6.02
2023-02-02T08:34:37.593Z,6.00
2023-02-02T08:39:41.979Z,5.97
2023-02-02T08:45:01.142Z,6.33
2023-02-02T08:50:01.408Z,6.48
2023-02-02T08:54:59.805Z,6.86
2023-02-02T08:59:59.219Z,6.81
2023-02-02T09:04:57.853Z,7.16
2023-02-02T09:09:58.296Z,7.01
2023-02-02T09:14:59.238Z,6.82
2023-02-02T09:19:57.949Z,6.89
2023-02-02T09:24:59.196Z,7.20
2023-02-02T09:29:59.693Z,7.01
2023-02-02T09:35:01.390Z,7.07
2023-02-02T09:40:00.325Z,7.30
2023-02-02T09:45:42.416Z,7.38
2023-02-02T09:51:12.828Z,7.44
2023-02-02T09:56:23.165Z,8.00
2023-02-02T10:01:34.382Z,8.03
2023-02-02T10:06:39.060Z,8.30
2023-02-02T10:11:44.607Z,8.73
2023-02-02T10:16:48.331Z,8.83
2023-02-02T10:21:52.290Z,9.12
2023-02-02T10:26:56.832Z,8.99
2023-02-02T10:32:27.539Z,9.26
2023-02-02T10:37:38.475Z,9.17
2023-02-02T10:43:18.661Z,9.33
2023-02-02T10:48:23.189Z,9.24
2023-02-02T10:53:25.568Z,9.29
2023-02-02T10:58:36.353Z,9.36
2023-02-02T11:03:37.425Z,8.98
2023-02-02T11:08:40.763Z,8.90
2023-02-02T11:14:09.411Z,9.28
2023-02-02T11:19:22.701Z,9.29
2023-02-02T11:24:44.804Z,9.08
2023-02-02T11:29:46.495Z,9.23
2023-02-02T11:34:46.729Z,9.10
2023-02-02T11:39:47.286Z,9.02
2023-02-02T11:45:00.271Z,9.05
2023-02-02T11:50:00.246Z,8.98
2023-02-02T11:55:01.671Z,8.96
2023-02-02T12:00:11.566Z,9.15
2023-02-02T12:05:33.652Z,9.20
2023-02-02T12:10:47.857Z,8.79
2023-02-02T12:16:09.065Z,8.63
2023-02-02T12:21:14.936Z,8.42
2023-02-02T12:26:29.251Z,8.20
2023-02-02T12:31:33.841Z,8.17
2023-02-02T12:36:47.466Z,7.90
2023-02-02T12:42:16.599Z,7.70
2023-02-02T12:47:21.202Z,7.39
2023-02-02T12:52:47.304Z,7.22
2023-02-02T12:57:49.948Z,7.27
2023-02-02T13:03:14.179Z,7.37
2023-02-02T13:08:27.117Z,7.15
2023-02-02T13:13:31.993Z,7.31
2023-02-02T13:18:35.346Z,7.32
2023-02-02T13:23:35.799Z,7.32
2023-02-02T13:28:54.467Z,7.14
2023-02-02T13:34:06.890Z,7.06
2023-02-02T13:39:16.470Z,7.07
2023-02-02T13:44:44.617Z,7.01
2023-02-02T13:49:47.496Z,7.13
2023-02-02T13:54:50.681Z,7.14
2023-02-02T13:59:59.620Z,7.04
2023-02-02T14:05:00.733Z,6.73
2023-02-02T14:09:59.401Z,6.65
2023-02-02T14:14:58.143Z,6.69
2023-02-02T14:20:04.282Z,6.46
2023-02-02T14:25:02.351Z,6.58
2023-02-02T14:30:01.129Z,6.59
2023-02-02T14:35:00.511Z,6.53
2023-02-02T14:40:02.300Z,6.71
2023-02-02T14:45:12.971Z,6.65
2023-02-02T14:50:17.965Z,6.26
2023-02-02T14:55:30.906Z,6.34
2023-02-02T15:00:32.479Z,6.25
2023-02-02T15:05:40.246Z,6.39
2023-02-02T15:11:33.622Z,5.97
2023-02-02T15:16:37.749Z,5.72
2023-02-02T15:21:38.459Z,5.83
2023-02-02T15:26:42.370Z,5.71
2023-02-02T15:31:47.815Z,5.74
2023-02-02T15:36:47.314Z,5.91
2023-02-02T15:41:47.970Z,5.70
2023-02-02T15:46:47.215Z,5.46
2023-02-02T15:52:02.890Z,5.22
2023-02-02T15:57:27.800Z,5.18
2023-02-02T16:02:45.352Z,5.03
2023-02-02T16:07:50.652Z,5.02
2023-02-02T16:12:58.733Z,4.87
2023-02-02T16:18:06.476Z,4.93
2023-02-02T16:23:14.363Z,4.80
2023-02-02T16:28:19.557Z,4.36
2023-02-02T16:33:35.424Z,4.18
2023-02-02T16:38:36.285Z,4.24
2023-02-02T16:43:38.570Z,4.45
2023-02-02T16:48:42.835Z,4.44
2023-02-02T16:53:51.731Z,4.33
2023-02-02T16:59:08.271Z,4.24
2023-02-02T17:04:32.616Z,3.90
2023-02-02T17:09:36.109Z,4.00
2023-02-02T17:14:37.537Z,3.99
2023-02-02T17:19:37.352Z,3.74
2023-02-02T17:24:37.620Z,3.67
2023-02-02T17:29:40.516Z,3.37
2023-02-02T17:34:39.748Z,3.67
2023-02-02T17:39:38.404Z,3.48
2023-02-02T17:44:43.683Z,3.61
2023-02-02T17:49:43.624Z,3.71
2023-02-02T17:54:53.181Z,3.75
2023-02-02T17:59:54.854Z,3.64
2023-02-02T18:04:54.913Z,3.43
2023-02-02T18:09:52.476Z,3.47
2023-02-02T18:14:54.310Z,3.46
2023-02-02T18:19:58.893Z,3.53
2023-02-02T18:24:58.839Z,3.35
2023-02-02T18:29:58.565Z,3.45
2023-02-02T18:34:56.213Z,3.35
2023-02-02T18:40:01.559Z,3.44
2023-02-02T18:45:07.459Z,3.27
2023-02-02T18:50:08.633Z,3.41
2023-02-02T18:55:10.688Z,3.24
2023-02-02T19:00:15.562Z,3.38
2023-02-02T19:11:16.256Z,3.02
2023-02-02T19:16:22.699Z,3.17
2023-02-02T19:21:24.106Z,3.10
2023-02-02T19:26:26.467Z,3.07
2023-02-02T19:31:25.442Z,3.06
2023-02-02T19:36:36.883Z,3.28
2023-02-02T19:41:42.832Z,3.06
2023-02-02T19:47:36.474Z,3.40
2023-02-02T19:52:41.143Z,3.12
2023-02-02T19:57:45.828Z,3.15
2023-02-02T20:03:14.309Z,3.29
2023-02-02T20:08:48.089Z,2.89
2023-02-02T20:13:50.997Z,3.02
2023-02-02T20:18:56.557Z,2.93
2023-02-02T20:23:56.508Z,3.20
2023-02-02T20:29:26.740Z,2.86
2023-02-02T20:34:30.774Z,2.56
2023-02-02T20:39:33.820Z,2.93
2023-02-02T20:44:45.586Z,2.89
2023-02-02T20:49:46.015Z,2.51
2023-02-02T20:54:45.723Z,2.60
2023-02-02T20:59:43.659Z,2.31
2023-02-02T21:04:46.783Z,2.40
2023-02-02T21:09:47.308Z,2.23
2023-02-02T21:14:48.871Z,2.06
2023-02-02T21:19:47.212Z,2.17
2023-02-02T21:24:48.288Z,2.02
2023-02-02T21:29:49.988Z,2.22
2023-02-02T21:34:52.933Z,2.18
2023-02-02T21:40:00.416Z,2.27
2023-02-02T21:45:00.194Z,2.49
2023-02-02T21:50:01.540Z,2.35
2023-02-02T21:55:37.589Z,2.49
2023-02-02T22:00:43.249Z,2.56
2023-02-02T22:05:46.294Z,2.34
2023-02-02T22:10:46.111Z,2.33
2023-02-02T22:15:49.834Z,2.34
2023-02-02T22:20:50.666Z,2.48
2023-02-02T22:25:57.786Z,2.15
2023-02-02T22:31:00.669Z,2.37
2023-02-02T22:35:58.760Z,2.12
2023-02-02T22:41:05.334Z,2.39
2023-02-02T22:46:06.112Z,2.10
2023-02-02T22:51:12.216Z,2.28
2023-02-02T22:56:11.070Z,2.46
2023-02-02T23:01:14.080Z,2.50
2023-02-02T23:06:13.653Z,2.44
2023-02-02T23:11:19.985Z,2.36
2023-02-02T23:16:24.375Z,2.25
2023-02-02T23:21:24.604Z,2.29
2023-02-02T23:26:27.048Z,2.31
2023-02-02T23:31:27.355Z,2.20
2023-02-02T23:36:29.045Z,2.39
2023-02-02T23:41:30.241Z,2.26
2023-02-02T23:46:32.117Z,2.31
2023-02-02T23:51:33.486Z,2.28
2023-02-02T23:56:34.964Z,2.45
